• Join FlightAware (Why Join?)
  • Login
  • US Flag 
05:16PM EDT


 

Airport Tracker/Info


-or-


 

Live Flight TrackerFlight Track Log ✈ SWA3383 ✈ 28-Feb-2014 ✈ KHOU - KMAF

Flight Track Log - Related Links

Times and Time Zones

All times are in EST time to prevent confusion due to time zone crossing. See the SWA3383 flight status page for this flight to view local times or setup timezone preferences in your user account.

Time Position Orientation Groundspeed Altitude Reporting Facility
EST Latitude Longitude Course Direction KTS MPH feet Rate Location/Type
09:05PM 29.6108 -95.3186 226° Southwest 183 211 3,400  Level Houston Center
09:06PM 29.5592 -95.3728 222° Southwest 255 293 6,900 3,300 Climbing Houston Center
09:07PM 29.5508 -95.3806 219° Southwest 235 270 7,700 3,720 Climbing Houston Center
09:07PM 29.5125 -95.4361 232° Southwest 279 321 10,700 4,020 Climbing Houston Center
09:08PM 29.5192 -95.4572 290° West 279 321 11,900 2,640 Climbing Houston Center
09:09PM 29.5644 -95.5339 304° West 287 330 14,200 2,820 Climbing Houston Center
09:10PM 29.6156 -95.6278 302° West 338 389 17,800 3,360 Climbing Houston Center
09:11PM 29.6681 -95.7228 302° West 347 399 21,200 3,060 Climbing Houston Center
09:12PM 29.7094 -95.8286 294° West 358 412 24,100 2,700 Climbing Houston Center
09:13PM 29.7519 -95.9383 294° West 368 423 26,800 2,460 Climbing Houston Center
09:14PM 29.7969 -96.0569 294° West 376 433 29,200 2,040 Climbing Houston Center
09:15PM 29.8406 -96.1692 294° West 381 438 31,100 1,920 Climbing Houston Center
09:16PM 29.8828 -96.2825 293° West 385 443 33,200 2,040 Climbing Houston Center
09:17PM 29.9253 -96.3939 294° West 385 443 35,300 1,740 Climbing Houston Center
09:18PM 29.9661 -96.5036 293° West 379 436 36,800 1,440 Climbing Houston Center
09:19PM 30.0164 -96.6369 294° West 380 437 38,300 1,320 Climbing Houston Center
09:20PM 30.0583 -96.7500 293° West 384 442 39,600 780 Climbing Houston Center
09:21PM 30.1006 -96.8611 294° West 383 441 40,000 180 Climbing Houston Center
09:22PM 30.1456 -96.9867 293° West 380 437 40,000  Level Houston Center
09:23PM 30.1872 -97.1008 293° West 383 441 40,000  Level Houston Center
09:24PM 30.2303 -97.2131 294° West 382 440 40,000  Level Houston Center
09:25PM 30.2700 -97.3247 292° West 372 428 40,000  Level Houston Center
09:26PM 30.3125 -97.4383 293° West 378 435 40,000  Level Houston Center
09:27PM 30.3556 -97.5508 294° West 378 435 40,000  Level Houston Center
09:28PM 30.3931 -97.6436 295° West 378 435 40,000  Level Houston Center
09:29PM 30.4431 -97.7747 294° West 378 435 40,000  Level Houston Center
09:30PM 30.4867 -97.8889 294° West 381 438 40,000  Level Houston Center
09:31PM 30.5294 -98.0025 294° West 380 437 40,000  Level Houston Center
09:32PM 30.5733 -98.1158 294° West 380 437 40,000  Level Houston Center
09:33PM 30.6164 -98.2278 294° West 378 435 40,000  Level Houston Center
09:34PM 30.6586 -98.3394 294° West 374 430 40,000  Level Houston Center
09:35PM 30.7006 -98.4514 294° West 374 430 40,000  Level Houston Center
09:36PM 30.7433 -98.5633 294° West 374 430 40,000  Level Houston Center
09:37PM 30.7856 -98.6781 293° West 378 435 40,000  Level Houston Center
09:38PM 30.8281 -98.7919 294° West 378 435 40,000  Level Houston Center
09:39PM 30.8728 -98.9067 294° West 380 437 40,000  Level Houston Center
09:40PM 30.9133 -99.0222 292° West 380 437 40,000  Level Houston Center
09:41PM 30.9567 -99.1369 294° West 384 442 40,000  Level Houston Center
09:43PM 31.0006 -99.2544 294° West 384 442 40,000  Level Houston Center
09:44PM 31.0425 -99.3681 293° West 384 442 40,000  Level Houston Center
09:45PM 31.0836 -99.4803 293° West 383 441 40,000  Level Houston Center
09:46PM 31.1328 -99.6147 293° West 380 437 40,000  Level Houston Center
09:47PM 31.1733 -99.7272 293° West 378 435 40,000  Level Houston Center
09:48PM 31.2156 -99.8389 294° West 378 435 40,000  Level Houston Center
09:49PM 31.2550 -99.9494 293° West 374 430 40,000  Level Houston Center
09:50PM 31.2956 -100.0625 293° West 375 432 40,000  Level Houston Center
09:51PM 31.3356 -100.1747 293° West 375 432 40,000 -540 Level Houston Center
09:52PM 31.3758 -100.2861 293° West 375 432 39,000 -1,080 Descending Houston Center
09:52PM 31.4061 -100.3731 292° West 374 430 38,200 -1,080 Descending Fort Worth Center
09:53PM 31.4472 -100.4839 294° West 374 430 37,200 -960 Descending Fort Worth Center
09:54PM 31.4869 -100.5961 293° West 374 430 36,300 -1,620 Descending Fort Worth Center
09:55PM 31.5297 -100.7194 292° West 376 433 33,900 -2,640 Descending Fort Worth Center
09:56PM 31.5703 -100.8308 293° West 375 432 31,000 -2,640 Descending Fort Worth Center
09:57PM 31.6092 -100.9417 292° West 371 427 28,500 -2,400 Descending Fort Worth Center
09:59PM 31.6458 -101.0475 292° West 358 412 26,200 -2,280 Descending Fort Worth Center
10:00PM 31.6806 -101.1478 292° West 339 390 23,900 -2,220 Descending Fort Worth Center
10:01PM 31.7150 -101.2478 292° West 335 386 21,700 -2,160 Descending Fort Worth Center
10:02PM 31.7503 -101.3447 293° West 328 377 19,500 -2,400 Descending Fort Worth Center
10:03PM 31.7894 -101.4614 292° West 324 373 16,800 -2,340 Descending Fort Worth Center
10:04PM 31.8231 -101.5547 293° West 314 361 14,800 -2,040 Descending Fort Worth Center
10:05PM 31.8539 -101.6467 292° West 308 354 12,700 -1,980 Descending Fort Worth Center
10:06PM 31.8850 -101.7361 292° West 299 344 10,800 -1,320 Descending Fort Worth Center
10:07PM 31.9156 -101.8258 292° West 298 343 10,000 -1,080 Descending Fort Worth Center
10:08PM 31.9425 -101.9064 292° West 270 311 8,600 -1,080 Descending Fort Worth Center
10:09PM 31.9694 -101.9850 292° West 265 305 7,900 -780 Descending Fort Worth Center
10:10PM 31.9956 -102.0622 292° West 224 258 7,100 -900 Descending Fort Worth Center
10:11PM 32.0139 -102.1178 291° West 195 224 6,100 -960 Descending Fort Worth Center
10:12PM 32.0314 -102.1681 292° West 176 203 5,200 -840 Descending Fort Worth Center
10:13PM 32.0367 -102.2081 279° West 149 171 4,500 -780 Descending Fort Worth Center
10:14PM 31.9992 -102.2100 183° South 142 163 3,700 -840 Descending Fort Worth Center
10:15PM 31.9625 -102.2056 174° South 138 159 2,900 -840 Descending Fort Worth Center
10:17PM 31.9425 -102.2019 180° South  Level Estimated